Time;durP1;ratioP1;P1;durP2;ratioP2;P2;SDS_P1;SDS_P2;PMS_P1;PMS_P2;Temp;Humidity;BMP_temperature;BMP_pressure;BME280_temperature;BME280_humidity;BME280_pressure;Samples;Min_cycle;Max_cycle;Signal;HPM_P1;HPM_P2
2022/12/02 00:01:52;;;;;;;46.53;21.30;;;;;;;-0.03;100.00;98827.00;1725771;82;21022;-80
2022/12/02 00:04:26;;;;;;;36.00;18.35;;;;;;;0.03;100.00;98824.59;1696473;83;20959;-80
2022/12/02 00:06:54;;;;;;;39.40;19.17;;;;;;;0.04;100.00;98824.39;1732998;82;21057;-80
2022/12/02 00:09:32;;;;;;;40.75;21.00;;;;;;;0.03;100.00;98822.75;1733112;82;21034;-80
2022/12/02 00:12:01;;;;;;;44.93;20.10;;;;;;;0.08;100.00;98830.15;1733245;82;24505;-80
2022/12/02 00:14:29;;;;;;;34.50;16.82;;;;;;;0.06;100.00;98828.19;1736532;82;20955;-77
2022/12/02 00:16:55;;;;;;;41.18;19.50;;;;;;;0.05;100.00;98827.37;1710439;83;21058;-77
2022/12/02 00:19:22;;;;;;;63.17;24.70;;;;;;;0.01;100.00;98815.46;1729976;83;21029;-77
2022/12/02 00:21:49;;;;;;;37.48;19.02;;;;;;;0.05;100.00;98816.71;1710282;83;21016;-77
2022/12/02 00:24:16;;;;;;;41.28;17.75;;;;;;;0.05;100.00;98811.89;1729947;83;21848;-77
2022/12/02 00:26:42;;;;;;;38.70;17.37;;;;;;;0.04;100.00;98816.91;1710409;83;21593;-77
2022/12/02 00:29:08;;;;;;;41.60;19.23;;;;;;;-0.02;100.00;98811.83;1729973;83;20957;-80
2022/12/02 00:31:34;;;;;;;39.85;18.00;;;;;;;-0.03;100.00;98814.18;1710562;83;20933;-80
2022/12/02 00:33:59;;;;;;;35.35;16.55;;;;;;;-0.02;100.00;98813.98;1730048;83;21496;-77
2022/12/02 00:36:27;;;;;;;39.98;19.37;;;;;;;-0.08;100.00;98814.78;1710684;83;21800;-80
2022/12/02 00:38:54;;;;;;;41.35;19.55;;;;;;;-0.08;100.00;98812.63;1730056;83;20989;-80
2022/12/02 00:41:20;;;;;;;41.92;19.15;;;;;;;-0.07;100.00;98811.60;1710828;83;21041;-77
2022/12/02 00:46:33;;;;;;;37.98;20.08;;;;;;;-0.06;100.00;98805.25;1710823;83;21065;-80
2022/12/02 00:49:09;;;;;;;46.25;20.23;;;;;;;-0.04;100.00;98815.20;1730116;83;21377;-78
2022/12/02 00:51:36;;;;;;;35.92;18.30;;;;;;;-0.02;100.00;98814.50;1710421;83;21013;-80
2022/12/02 00:54:02;;;;;;;41.75;19.65;;;;;;;-0.05;100.00;98809.56;1730032;83;21001;-80
2022/12/02 00:56:28;;;;;;;42.17;20.27;;;;;;;-0.07;100.00;98807.09;1710544;83;21473;-77
2022/12/02 00:58:54;;;;;;;41.30;20.75;;;;;;;-0.11;100.00;98803.66;1730037;83;20905;-80
2022/12/02 01:01:20;;;;;;;41.58;19.45;;;;;;;-0.15;100.00;98805.08;1711890;83;21864;-80
2022/12/02 01:03:46;;;;;;;41.92;18.73;;;;;;;-0.13;100.00;98808.36;1713254;83;20995;-80
2022/12/02 01:06:13;;;;;;;36.60;17.95;;;;;;;-0.11;100.00;98807.14;1713489;83;20903;-77
2022/12/02 01:08:39;;;;;;;38.38;17.35;;;;;;;-0.08;100.00;98803.30;1713321;83;20991;-77
2022/12/02 01:11:05;;;;;;;41.88;21.02;;;;;;;-0.02;100.00;98803.84;1713590;83;21671;-80
2022/12/02 01:13:30;;;;;;;39.35;19.75;;;;;;;-0.02;100.00;98808.66;1709999;83;21831;-77
2022/12/02 01:15:56;;;;;;;39.10;18.12;;;;;;;-0.01;100.00;98797.48;1687893;85;20952;-77
2022/12/02 01:18:22;;;;;;;33.48;17.02;;;;;;;-0.02;100.00;98803.84;1687937;83;20901;-80
2022/12/02 01:20:48;;;;;;;35.28;18.50;;;;;;;-0.04;100.00;98802.70;1688123;84;20862;-77
2022/12/02 01:23:14;;;;;;;40.20;20.15;;;;;;;-0.08;100.00;98800.12;1688055;84;20893;-80
2022/12/02 01:25:40;;;;;;;42.70;19.07;;;;;;;-0.10;100.00;98798.13;1687723;84;21131;-81
2022/12/02 01:28:06;;;;;;;45.98;19.10;;;;;;;-0.08;100.00;98795.30;1687708;84;21008;-80
2022/12/02 01:30:32;;;;;;;41.98;18.80;;;;;;;-0.08;100.00;98789.98;1688091;84;20873;-77
2022/12/02 01:32:58;;;;;;;41.98;18.23;;;;;;;-0.08;100.00;98792.64;1687843;85;21315;-77
2022/12/02 01:35:24;;;;;;;41.37;19.15;;;;;;;-0.05;100.00;98790.40;1687971;84;20940;-78
2022/12/02 01:37:50;;;;;;;45.88;19.20;;;;;;;-0.02;100.00;98791.84;1687806;84;21010;-77
2022/12/02 01:40:16;;;;;;;41.08;18.75;;;;;;;-0.04;100.00;98790.71;1688059;84;20905;-80
2022/12/02 01:42:42;;;;;;;42.85;20.57;;;;;;;-0.06;100.00;98790.09;1687645;84;21011;-80
2022/12/02 01:45:09;;;;;;;44.10;19.35;;;;;;;-0.03;100.00;98784.36;1688106;84;20885;-77
2022/12/02 01:47:35;;;;;;;38.92;19.35;;;;;;;-0.08;100.00;98785.98;1687847;84;21495;-79
2022/12/02 01:50:02;;;;;;;44.40;17.80;;;;;;;-0.11;100.00;98788.50;1708717;83;21195;-80
2022/12/02 01:52:28;;;;;;;48.48;24.25;;;;;;;-0.04;100.00;98785.89;1687945;85;20972;-77
2022/12/02 01:54:54;;;;;;;39.83;18.98;;;;;;;-0.05;100.00;98782.91;1688034;84;21686;-80
2022/12/02 01:57:26;;;;;;;49.73;19.35;;;;;;;-0.05;100.00;98779.74;1687909;84;20877;-77
2022/12/02 01:59:52;;;;;;;40.60;18.90;;;;;;;-0.02;100.00;98778.52;1713185;83;21060;-80
2022/12/02 02:02:28;;;;;;;40.55;19.65;;;;;;;-0.08;100.00;98779.31;1713300;83;21510;-80
2022/12/02 02:04:57;;;;;;;42.23;19.07;;;;;;;-0.07;100.00;98779.63;1687618;85;21016;-77
2022/12/02 02:07:22;;;;;;;;;;;;;;;-0.04;100.00;98784.56;1690339;84;21099;-80
2022/12/02 02:09:48;;;;;;;43.68;20.40;;;;;;;-0.09;100.00;98777.64;1688097;84;20269;-80
2022/12/02 02:12:14;;;;;;;43.70;19.42;;;;;;;-0.15;100.00;98778.44;1687671;84;21675;-80
2022/12/02 02:14:40;;;;;;;42.65;20.65;;;;;;;-0.17;100.00;98770.64;1701732;83;21031;-77
2022/12/02 02:17:07;;;;;;;43.48;19.48;;;;;;;-0.18;100.00;98776.13;1707763;83;20982;-80
2022/12/02 02:19:33;;;;;;;36.55;15.83;;;;;;;-0.14;100.00;98776.08;1729528;83;20997;-80
2022/12/02 02:21:59;;;;;;;37.75;17.65;;;;;;;-0.13;100.00;98773.22;1707692;82;20930;-80
2022/12/02 02:24:24;;;;;;;40.65;17.65;;;;;;;-0.12;100.00;98772.70;1729673;83;20877;-80
2022/12/02 02:26:50;;;;;;;41.13;17.30;;;;;;;-0.15;100.00;98769.93;1707663;82;21751;-80
2022/12/02 02:29:16;;;;;;;34.27;17.82;;;;;;;-0.13;100.00;98769.73;1729483;83;20972;-80
2022/12/02 02:31:42;;;;;;;41.58;21.57;;;;;;;-0.10;100.00;98770.16;1707782;84;21639;-77
2022/12/02 02:34:08;;;;;;;32.53;17.27;;;;;;;-0.08;100.00;98776.66;1729645;82;20834;-78
2022/12/02 02:36:34;;;;;;;44.42;22.00;;;;;;;-0.14;100.00;98766.25;1707855;84;21560;-77
2022/12/02 02:39:00;;;;;;;45.83;21.87;;;;;;;-0.10;100.00;98770.67;1729644;83;21275;-80
2022/12/02 02:41:26;;;;;;;30.15;15.32;;;;;;;-0.12;100.00;98772.20;1707711;84;21000;-78
2022/12/02 02:43:52;;;;;;;34.83;15.75;;;;;;;-0.16;100.00;98768.80;1729716;82;20996;-77
2022/12/02 02:46:18;;;;;;;35.43;17.17;;;;;;;-0.13;100.00;98768.41;1707829;83;21524;-77
2022/12/02 02:48:43;;;;;;;33.83;16.02;;;;;;;-0.12;100.00;98767.38;1729746;82;20968;-80
2022/12/02 02:51:09;;;;;;;33.92;16.17;;;;;;;-0.11;100.00;98765.03;1707920;84;21115;-77
2022/12/02 02:53:35;;;;;;;33.15;16.02;;;;;;;-0.16;100.00;98766.13;1724644;83;20949;-77
2022/12/02 02:56:01;;;;;;;37.03;15.20;;;;;;;-0.21;100.00;98761.37;1679398;84;20941;-80
2022/12/02 02:58:27;;;;;;;34.48;15.03;;;;;;;-0.23;100.00;98759.92;1729734;82;20966;-77
2022/12/02 03:01:01;;;;;;;39.50;18.15;;;;;;;-0.17;100.00;98767.13;1709167;83;21444;-77
2022/12/02 03:03:30;;;;;;;36.00;17.00;;;;;;;-0.17;100.00;98760.46;1686114;85;21769;-80
2022/12/02 03:05:56;;;;;;;35.08;16.65;;;;;;;-0.18;100.00;98754.83;1687851;85;21024;-80
2022/12/02 03:08:22;;;;;;;31.80;14.63;;;;;;;-0.18;100.00;98758.82;1687713;85;21638;-77
2022/12/02 03:10:49;;;;;;;34.23;17.48;;;;;;;-0.15;100.00;98756.61;1687903;85;20885;-80
2022/12/02 03:13:15;;;;;;;35.38;17.10;;;;;;;-0.15;100.00;98757.95;1687914;83;20996;-80
2022/12/02 03:15:41;;;;;;;37.78;16.90;;;;;;;-0.16;100.00;98750.15;1716726;83;20997;-80
2022/12/02 03:18:07;;;;;;;30.75;16.62;;;;;;;-0.14;100.00;98750.77;1716288;83;20861;-77
2022/12/02 03:20:33;;;;;;;30.10;14.28;;;;;;;-0.10;100.00;98754.69;1707019;83;21034;-77
2022/12/02 03:23:00;;;;;;;31.07;14.60;;;;;;;-0.14;100.00;98747.59;1702266;84;21326;-77
2022/12/02 03:25:26;;;;;;;27.05;13.95;;;;;;;-0.14;100.00;98748.11;1702135;84;21007;-77
2022/12/02 03:27:52;;;;;;;32.80;17.05;;;;;;;-0.14;100.00;98746.78;1702216;84;21051;-77
2022/12/02 03:30:18;;;;;;;34.48;17.07;;;;;;;-0.15;100.00;98747.80;1702535;84;20899;-80
2022/12/02 03:32:45;;;;;;;30.55;13.00;;;;;;;-0.19;100.00;98746.01;1701971;84;21002;-80
2022/12/02 03:35:11;;;;;;;32.90;15.63;;;;;;;-0.16;100.00;98746.16;1702397;84;21019;-77
2022/12/02 03:37:36;;;;;;;27.35;14.83;;;;;;;-0.17;100.00;98744.48;1702274;84;21025;-77
2022/12/02 03:40:03;;;;;;;34.63;16.10;;;;;;;-0.14;100.00;98748.11;1702310;84;21173;-77
2022/12/02 03:42:29;;;;;;;33.65;15.18;;;;;;;-0.12;100.00;98746.06;1702352;84;21004;-78
2022/12/02 03:44:55;;;;;;;36.25;18.17;;;;;;;-0.12;100.00;98746.89;1702499;84;21664;-78
2022/12/02 03:47:21;;;;;;;34.30;14.65;;;;;;;-0.14;100.00;98747.59;1702366;84;20958;-80
2022/12/02 03:49:47;;;;;;;34.33;15.60;;;;;;;-0.19;100.00;98743.34;1702428;84;21490;-77
2022/12/02 03:52:13;;;;;;;33.23;15.85;;;;;;;-0.15;100.00;98739.30;1702361;84;21141;-77
2022/12/02 03:54:38;;;;;;;31.77;13.53;;;;;;;-0.21;100.00;98738.73;1702411;84;22341;-77
2022/12/02 03:57:05;;;;;;;27.52;13.95;;;;;;;-0.30;100.00;98738.55;1702224;84;20883;-77
2022/12/02 03:59:31;;;;;;;31.73;15.40;;;;;;;-0.34;100.00;98738.13;1702166;84;21063;-80
2022/12/02 04:01:57;;;;;;;32.15;15.98;;;;;;;-0.32;100.00;98733.94;1692480;84;20881;-78
2022/12/02 04:04:23;;;;;;;29.75;15.13;;;;;;;-0.34;100.00;98734.64;1687625;85;21840;-81
2022/12/02 04:06:49;;;;;;;35.20;15.63;;;;;;;-0.37;100.00;98734.50;1687571;85;20869;-80
2022/12/02 04:09:15;;;;;;;38.08;16.40;;;;;;;-0.31;100.00;98728.92;1687746;85;21658;-80
2022/12/02 04:11:40;;;;;;;40.78;16.42;;;;;;;-0.34;100.00;98731.98;1687847;85;20948;-78
2022/12/02 04:14:06;;;;;;;36.53;16.23;;;;;;;-0.38;100.00;98742.68;1723967;82;21604;-80
2022/12/02 04:16:32;;;;;;;41.40;18.27;;;;;;;-0.40;100.00;98734.07;1743194;82;21044;-80
2022/12/02 04:18:58;;;;;;;34.73;17.90;;;;;;;-0.48;100.00;98736.36;1742707;82;21600;-77
2022/12/02 04:21:24;;;;;;;37.05;17.65;;;;;;;-0.53;100.00;98737.42;1743143;82;20982;-77
2022/12/02 04:23:51;;;;;;;37.93;16.50;;;;;;;-0.53;100.00;98731.27;1742711;82;21497;-77
2022/12/02 04:26:18;;;;;;;41.70;17.05;;;;;;;-0.54;100.00;98726.97;1742981;82;21029;-79
2022/12/02 04:28:44;;;;;;;199.72;63.60;;;;;;;-0.59;100.00;98725.72;1742762;82;21224;-80
2022/12/02 04:31:10;;;;;;;194.62;67.92;;;;;;;-0.58;100.00;98731.36;1742829;82;21549;-80
2022/12/02 04:33:36;;;;;;;77.70;35.17;;;;;;;-0.52;100.00;98724.42;1742736;82;20906;-77
2022/12/02 04:36:02;;;;;;;46.77;19.48;;;;;;;-0.47;100.00;98728.68;1742992;82;20923;-80
2022/12/02 04:38:28;;;;;;;44.45;19.80;;;;;;;-0.43;100.00;98726.45;1742902;82;20954;-80
2022/12/02 04:40:54;;;;;;;38.00;18.12;;;;;;;-0.43;100.00;98725.11;1742991;82;21089;-77
2022/12/02 04:43:20;;;;;;;39.88;17.50;;;;;;;-0.43;100.00;98728.59;1742818;82;21576;-80
2022/12/02 04:45:46;;;;;;;80.40;34.70;;;;;;;-0.66;100.00;98728.83;1742975;82;20993;-77
2022/12/02 04:48:11;;;;;;;106.92;46.55;;;;;;;-0.66;100.00;98721.34;1742891;82;20883;-77
2022/12/02 04:50:38;;;;;;;47.20;23.45;;;;;;;-0.63;100.00;98731.09;1742726;82;21451;-77
2022/12/02 04:53:03;;;;;;;45.88;20.25;;;;;;;-0.68;100.00;98728.20;1742948;82;21072;-80
2022/12/02 04:55:29;;;;;;;38.42;18.77;;;;;;;-0.69;100.00;98732.36;1742974;82;20891;-80
2022/12/02 04:57:55;;;;;;;42.65;20.77;;;;;;;-0.72;100.00;98731.41;1742751;82;21013;-77
2022/12/02 05:00:21;;;;;;;39.73;17.80;;;;;;;-0.71;100.00;98734.39;1742317;82;20919;-77
2022/12/02 05:02:47;;;;;;;40.45;17.50;;;;;;;-0.76;100.00;98736.81;1718142;82;20942;-80
2022/12/02 05:05:13;;;;;;;41.37;20.60;;;;;;;-0.83;100.00;98735.41;1718353;83;21111;-77
2022/12/02 05:07:39;;;;;;;41.98;21.50;;;;;;;-0.79;100.00;98736.66;1718201;82;21325;-81
2022/12/02 05:10:07;;;;;;;40.03;20.52;;;;;;;-0.85;100.00;98737.45;1718182;83;21005;-80
2022/12/02 05:12:33;;;;;;;45.63;19.70;;;;;;;-0.84;100.00;98739.09;1718515;83;21085;-80
2022/12/02 05:14:59;;;;;;;45.30;18.57;;;;;;;-0.78;100.00;98736.98;1717088;83;21080;-77
2022/12/02 05:17:25;;;;;;;44.95;20.92;;;;;;;-0.80;100.00;98741.67;1723333;83;21210;-80
2022/12/02 05:19:51;;;;;;;34.13;17.40;;;;;;;-0.87;100.00;98737.61;1706869;84;20909;-80
2022/12/02 05:22:17;;;;;;;38.05;17.95;;;;;;;-0.78;100.00;98740.15;1711122;83;20981;-80
2022/12/02 05:24:43;;;;;;;34.78;18.25;;;;;;;-0.73;100.00;98741.23;1706805;83;22083;-77
2022/12/02 05:27:09;;;;;;;44.55;21.42;;;;;;;-0.81;100.00;98740.03;1711074;83;21054;-80
2022/12/02 05:29:35;;;;;;;41.65;20.23;;;;;;;-0.78;100.00;98739.64;1707088;84;22140;-80
2022/12/02 05:32:01;;;;;;;37.35;20.40;;;;;;;-0.75;100.00;98739.79;1710866;83;20890;-77
2022/12/02 05:34:27;;;;;;;44.93;20.82;;;;;;;-0.82;100.00;98742.38;1706836;83;20906;-77
2022/12/02 05:36:53;;;;;;;48.25;20.57;;;;;;;-0.87;100.00;98746.92;1711106;83;20847;-77
2022/12/02 05:39:19;;;;;;;38.73;18.77;;;;;;;-0.83;100.00;98736.74;1706768;83;22250;-80
2022/12/02 05:41:44;;;;;;;49.83;22.02;;;;;;;-0.87;100.00;98742.93;1687245;83;21191;-77
2022/12/02 05:44:21;;;;;;;42.80;18.37;;;;;;;-0.81;100.00;98741.36;1724362;82;21579;-80
2022/12/02 05:46:47;;;;;;;41.20;19.10;;;;;;;-0.83;100.00;98738.08;1713288;83;21002;-76
2022/12/02 05:49:22;;;;;;;40.25;19.65;;;;;;;-0.81;100.00;98739.20;1714562;83;21013;-77
2022/12/02 05:51:57;;;;;;;37.73;20.82;;;;;;;-0.74;100.00;98746.25;1708129;83;20987;-78
2022/12/02 05:54:24;;;;;;;35.10;17.87;;;;;;;-0.82;100.00;98741.05;1727583;80;21865;-80
2022/12/02 05:56:50;;;;;;;43.65;19.57;;;;;;;-0.75;100.00;98738.46;1726631;82;20982;-80
2022/12/02 05:59:18;;;;;;;47.45;17.75;;;;;;;-0.74;100.00;98736.94;1719746;82;21962;-80
2022/12/02 06:01:50;;;;;;;51.77;21.52;;;;;;;-0.76;100.00;98733.64;1694471;83;21024;-77
2022/12/02 06:04:26;;;;;;;41.10;19.45;;;;;;;-0.72;100.00;98730.91;1686687;85;21035;-80
2022/12/02 06:06:52;;;;;;;44.08;19.15;;;;;;;-0.72;100.00;98738.06;1691973;83;21107;-80
2022/12/02 06:09:32;;;;;;;55.17;21.10;;;;;;;-0.73;100.00;98736.42;1693242;83;20985;-80
2022/12/02 06:11:58;;;;;;;37.25;17.52;;;;;;;-0.71;100.00;98734.39;1696854;83;21510;-78
2022/12/02 06:14:27;;;;;;;48.15;20.95;;;;;;;-0.67;100.00;98734.34;1677242;85;21024;-80
2022/12/02 06:16:56;;;;;;;40.67;21.23;;;;;;;-0.67;100.00;98729.02;1714453;82;21053;-77
2022/12/02 06:19:35;;;;;;;46.83;19.35;;;;;;;-0.70;100.00;98730.20;1709659;83;21309;-80
2022/12/02 06:22:01;;;;;;;44.38;19.12;;;;;;;-0.70;100.00;98734.70;1727844;82;21021;-77
2022/12/02 06:24:30;;;;;;;35.65;18.07;;;;;;;-0.72;100.00;98732.23;1720729;82;21633;-80
2022/12/02 06:27:00;;;;;;;47.88;19.70;;;;;;;-0.68;100.00;98740.69;1715924;82;21018;-77
2022/12/02 06:29:26;;;;;;;37.25;18.55;;;;;;;-0.70;100.00;98738.19;1710808;83;21013;-77
2022/12/02 06:31:52;;;;;;;46.92;21.12;;;;;;;-0.72;100.00;98740.22;1704881;82;21159;-77
2022/12/02 06:34:35;;;;;;;40.98;18.67;;;;;;;-0.67;100.00;98743.66;1688003;84;20912;-77
2022/12/02 06:37:11;;;;;;;41.02;20.48;;;;;;;-0.68;100.00;98742.02;1720875;82;21017;-80
2022/12/02 06:39:38;;;;;;;43.55;17.40;;;;;;;-0.70;100.00;98746.17;1728436;82;20948;-80
2022/12/02 06:42:12;;;;;;;52.53;21.65;;;;;;;-0.68;100.00;98746.83;1712547;82;21520;-77
2022/12/02 06:47:47;;;;;;;56.92;27.70;;;;;;;-0.63;100.00;98744.91;1697332;81;21020;-81
2022/12/02 06:50:26;;;;;;;46.10;22.42;;;;;;;-0.67;100.00;98745.81;1716268;81;21003;-80
2022/12/02 06:52:52;;;;;;;39.08;17.30;;;;;;;-0.65;100.00;98749.61;1722411;81;21071;-80
2022/12/02 06:55:30;;;;;;;45.00;19.57;;;;;;;-0.69;100.00;98749.15;1682314;81;21078;-77
2022/12/02 06:58:00;;;;;;;36.33;18.95;;;;;;;-0.66;100.00;98761.27;1711859;81;21178;-77
2022/12/02 07:00:26;;;;;;;45.65;19.07;;;;;;;-0.60;100.00;98767.15;1699022;83;21696;-77
2022/12/02 07:02:52;;;;;;;51.42;20.40;;;;;;;-0.61;100.00;98761.52;1713212;81;20896;-77
2022/12/02 07:05:20;;;;;;;36.28;18.37;;;;;;;-0.62;100.00;98763.86;1712455;83;20955;-77
2022/12/02 07:07:45;;;;;;;38.33;20.00;;;;;;;-0.69;100.00;98765.63;1702074;83;21067;-80
2022/12/02 07:10:26;;;;;;;36.33;16.60;;;;;;;-0.72;100.00;98762.84;1707067;83;21066;-80
2022/12/02 07:12:52;;;;;;;38.65;18.62;;;;;;;-0.81;100.00;98759.16;1666479;83;21090;-80
2022/12/02 07:15:31;;;;;;;41.63;19.48;;;;;;;-0.76;100.00;98763.43;1710807;83;20944;-80
2022/12/02 07:18:03;;;;;;;42.00;20.75;;;;;;;-0.73;100.00;98761.20;1721093;81;21083;-80
2022/12/02 07:20:39;;;;;;;39.55;18.55;;;;;;;-0.70;100.00;98758.15;1697952;81;21608;-77
2022/12/02 07:23:22;;;;;;;43.17;20.05;;;;;;;-0.68;100.00;98760.65;1687201;82;21490;-80
2022/12/02 07:25:55;;;;;;;39.33;19.40;;;;;;;-0.71;100.00;98759.67;1722546;82;21025;-80
2022/12/02 07:28:34;;;;;;;44.23;20.85;;;;;;;-0.65;100.00;98756.27;1717096;83;21554;-80
2022/12/02 07:31:12;;;;;;;;;;;;;;;-0.71;100.00;98757.02;1712543;83;21078;-77
2022/12/02 07:33:38;;;;;;;37.10;16.30;;;;;;;-0.67;100.00;98759.63;1706670;81;20189;-77
2022/12/02 07:36:04;;;;;;;37.98;19.77;;;;;;;-0.75;100.00;98758.42;1710603;83;21088;-80
2022/12/02 07:38:30;;;;;;;37.10;18.02;;;;;;;-0.70;100.00;98765.31;1709442;81;21044;-80
2022/12/02 07:40:56;;;;;;;67.85;33.78;;;;;;;-0.66;100.00;98762.61;1711471;81;21018;-80
2022/12/02 07:43:22;;;;;;;39.15;19.73;;;;;;;-0.72;100.00;98757.52;1740642;81;21622;-80
2022/12/02 07:45:48;;;;;;;64.82;28.67;;;;;;;-0.78;100.00;98763.59;1721107;81;20865;-80
2022/12/02 07:48:14;;;;;;;47.05;20.60;;;;;;;-0.69;100.00;98764.30;1717129;82;21152;-80
2022/12/02 07:50:39;;;;;;;43.35;21.50;;;;;;;-0.75;100.00;98762.41;1712617;82;20929;-80
2022/12/02 07:53:05;;;;;;;40.70;18.82;;;;;;;-0.73;100.00;98762.53;1748982;80;21604;-80
2022/12/02 07:55:31;;;;;;;40.12;19.62;;;;;;;-0.83;100.00;98766.02;1748883;80;20870;-80
2022/12/02 07:57:57;;;;;;;42.20;21.55;;;;;;;-0.85;100.00;98765.39;1706776;82;21646;-80
2022/12/02 08:00:24;;;;;;;38.02;19.90;;;;;;;-0.82;100.00;98763.67;1696759;83;21031;-77
2022/12/02 08:02:50;;;;;;;35.03;15.95;;;;;;;-0.85;100.00;98766.72;1734635;80;20984;-80
2022/12/02 08:05:16;;;;;;;41.18;19.67;;;;;;;-0.89;100.00;98769.42;1719982;82;21137;-80
2022/12/02 08:07:42;;;;;;;44.70;20.97;;;;;;;-0.88;100.00;98766.56;1710053;82;21040;-80
2022/12/02 08:10:09;;;;;;;42.48;22.00;;;;;;;-0.82;100.00;98766.84;1707415;82;21075;-77
2022/12/02 08:12:34;;;;;;;67.78;29.42;;;;;;;-0.73;100.00;98773.69;1705714;82;21118;-77
2022/12/02 08:15:00;;;;;;;94.47;37.58;;;;;;;-0.71;100.00;98769.81;1720732;82;20929;-77
2022/12/02 08:17:26;;;;;;;47.03;22.17;;;;;;;-0.66;100.00;98767.93;1730944;82;20892;-77
2022/12/02 08:19:52;;;;;;;44.85;19.23;;;;;;;-0.77;100.00;98760.42;1701979;83;20923;-77
2022/12/02 08:22:18;;;;;;;42.40;22.35;;;;;;;-0.86;100.00;98765.86;1703433;82;20905;-77
2022/12/02 08:24:44;;;;;;;37.42;20.15;;;;;;;-0.86;100.00;98765.86;1712669;82;21167;-80
2022/12/02 08:27:10;;;;;;;49.75;25.32;;;;;;;-0.82;100.00;98760.19;1693904;82;21178;-77
2022/12/02 08:29:36;;;;;;;74.82;31.35;;;;;;;-0.81;100.00;98765.31;1737542;80;20947;-80
2022/12/02 08:32:02;;;;;;;176.47;73.35;;;;;;;-0.73;100.00;98767.03;1743594;80;20883;-80
2022/12/02 08:34:28;;;;;;;100.15;55.88;;;;;;;-0.79;100.00;98765.94;1739868;82;21493;-80
2022/12/02 08:36:54;;;;;;;65.12;29.00;;;;;;;-0.82;100.00;98769.50;1726096;80;21037;-76
2022/12/02 08:39:19;;;;;;;44.65;21.40;;;;;;;-0.81;100.00;98772.47;1728855;80;20916;-76
2022/12/02 08:41:45;;;;;;;48.30;22.10;;;;;;;-0.83;100.00;98771.84;1712350;82;21172;-80
2022/12/02 08:44:11;;;;;;;44.35;21.57;;;;;;;-0.89;100.00;98770.75;1697431;83;21039;-80
2022/12/02 08:46:37;;;;;;;74.95;32.00;;;;;;;-0.85;100.00;98776.03;1713717;82;20946;-77
2022/12/02 08:49:05;;;;;;;40.52;19.52;;;;;;;-0.90;100.00;98773.09;1709675;82;21750;-80
2022/12/02 08:51:31;;;;;;;48.78;25.57;;;;;;;-1.03;100.00;98771.60;1714919;82;21610;-77
2022/12/02 08:53:57;;;;;;;37.05;18.20;;;;;;;-0.91;100.00;98777.59;1711588;83;21039;-77
2022/12/02 08:56:23;;;;;;;37.58;19.60;;;;;;;-0.97;100.00;98777.52;1698272;82;20863;-77
2022/12/02 08:58:49;;;;;;;42.60;22.87;;;;;;;-0.96;100.00;98777.83;1715020;83;20858;-80
2022/12/02 09:01:15;;;;;;;41.98;20.95;;;;;;;-0.89;100.00;98778.22;1703400;83;21036;-77
2022/12/02 09:03:41;;;;;;;44.63;19.27;;;;;;;-0.84;100.00;98780.34;1722635;82;21023;-80
2022/12/02 09:06:07;;;;;;;46.23;20.48;;;;;;;-0.74;100.00;98786.17;1709328;82;20912;-80
2022/12/02 09:08:33;;;;;;;41.18;19.92;;;;;;;-0.71;100.00;98783.13;1699298;82;20994;-77
2022/12/02 09:10:58;;;;;;;38.02;17.67;;;;;;;-0.78;100.00;98778.73;1698334;83;22021;-80
2022/12/02 09:13:24;;;;;;;42.30;21.68;;;;;;;-0.82;100.00;98776.97;1718651;82;21136;-80
2022/12/02 09:15:50;;;;;;;40.95;17.25;;;;;;;-0.73;100.00;98774.52;1709681;81;20926;-77
2022/12/02 09:18:16;;;;;;;35.50;18.30;;;;;;;-0.82;100.00;98772.16;1717252;82;20994;-77
2022/12/02 09:20:42;;;;;;;37.45;17.70;;;;;;;-0.90;100.00;98771.26;1709618;82;21473;-77
2022/12/02 09:23:08;;;;;;;44.90;17.87;;;;;;;-0.88;100.00;98766.56;1709417;82;20901;-77
2022/12/02 09:25:34;;;;;;;54.80;24.23;;;;;;;-0.86;100.00;98761.88;1706211;82;22120;-77
2022/12/02 09:28:00;;;;;;;52.93;18.98;;;;;;;-0.87;100.00;98774.04;1706283;82;20897;-77
2022/12/02 09:30:25;;;;;;;48.68;20.62;;;;;;;-0.86;100.00;98771.19;1727662;81;21523;-80
2022/12/02 09:32:51;;;;;;;45.10;20.27;;;;;;;-0.79;100.00;98765.12;1722739;83;20916;-80
2022/12/02 09:35:17;;;;;;;38.70;17.57;;;;;;;-0.77;100.00;98767.93;1728483;83;21566;-80
2022/12/02 09:37:43;;;;;;;38.60;18.50;;;;;;;-0.79;100.00;98763.78;1727543;81;21083;-80
2022/12/02 09:40:10;;;;;;;38.67;17.35;;;;;;;-0.81;100.00;98769.30;1736198;81;21602;-80
2022/12/02 09:42:36;;;;;;;36.65;17.65;;;;;;;-0.88;100.00;98772.39;1715135;82;21102;-80
2022/12/02 09:45:02;;;;;;;42.43;18.82;;;;;;;-0.89;100.00;98771.57;1701890;82;20945;-77
2022/12/02 09:47:28;;;;;;;43.55;19.85;;;;;;;-0.85;100.00;98770.70;1722455;82;21452;-77
2022/12/02 09:49:54;;;;;;;37.63;17.90;;;;;;;-0.99;100.00;98771.56;1712535;83;21101;-80
2022/12/02 09:52:23;;;;;;;39.78;17.65;;;;;;;-0.99;100.00;98767.57;1711684;82;21413;-77
2022/12/02 09:54:56;;;;;;;44.50;20.88;;;;;;;-0.96;100.00;98765.34;1713718;82;21003;-77
2022/12/02 09:57:27;;;;;;;45.40;22.40;;;;;;;-0.91;100.00;98765.63;1697423;82;21050;-80
2022/12/02 09:59:53;;;;;;;44.93;20.00;;;;;;;-0.82;100.00;98763.67;1698174;82;21005;-77
2022/12/02 10:02:39;;;;;;;45.58;21.33;;;;;;;-0.94;100.00;98760.69;1716768;82;22341;-80
2022/12/02 10:05:22;;;;;;;41.05;21.20;;;;;;;-0.94;100.00;98760.69;1717896;82;21471;-80
2022/12/02 10:07:48;;;;;;;39.45;21.05;;;;;;;-0.90;100.00;98760.61;1709010;82;21459;-80
2022/12/02 10:10:18;;;;;;;46.40;21.30;;;;;;;-0.89;100.00;98758.77;1701982;82;21344;-77
2022/12/02 10:12:44;;;;;;;51.13;21.37;;;;;;;-0.77;100.00;98757.77;1701728;82;21113;-80
2022/12/02 10:15:16;;;;;;;49.08;23.57;;;;;;;-0.69;100.00;98756.31;1709081;82;21167;-77
2022/12/02 10:17:43;;;;;;;42.13;22.17;;;;;;;-0.61;100.00;98752.20;1724723;82;21047;-77
2022/12/02 10:20:21;;;;;;;48.63;18.95;;;;;;;-0.59;100.00;98752.85;1718791;82;21012;-77
2022/12/02 10:23:12;;;;;;;40.05;19.65;;;;;;;-0.57;100.00;98748.97;1716929;82;21181;-80
2022/12/02 10:25:41;;;;;;;47.27;20.60;;;;;;;-0.52;100.00;98739.06;1698380;82;21521;-77
2022/12/02 10:28:23;;;;;;;;;;;;;;;-0.39;100.00;98743.70;1699656;82;21077;-77
2022/12/02 10:31:05;;;;;;;50.75;21.35;;;;;;;-0.32;100.00;98744.08;1684961;83;20479;-76
2022/12/02 10:33:33;;;;;;;57.00;24.55;;;;;;;-0.23;100.00;98734.62;1701018;82;21012;-77
2022/12/02 10:35:59;;;;;;;42.77;20.60;;;;;;;-0.30;100.00;98738.05;1703199;82;21651;-77
2022/12/02 10:38:40;;;;;;;41.55;19.10;;;;;;;-0.25;100.00;98740.14;1714944;82;21701;-77
2022/12/02 10:41:21;;;;;;;47.23;21.23;;;;;;;-0.32;100.00;98740.08;1726868;82;21171;-77
2022/12/02 10:44:04;;;;;;;46.60;18.65;;;;;;;-0.42;100.00;98746.25;1735996;82;21077;-80
2022/12/02 10:46:30;;;;;;;39.05;18.67;;;;;;;-0.48;100.00;98744.34;1744728;82;21151;-80
2022/12/02 10:49:18;;;;;;;42.60;19.62;;;;;;;-0.60;100.00;98743.19;1702652;82;21421;-80
2022/12/02 10:51:44;;;;;;;42.90;21.70;;;;;;;-0.57;100.00;98746.82;1705576;82;21112;-80
2022/12/02 10:54:23;;;;;;;49.30;23.73;;;;;;;-0.66;100.00;98746.64;1693180;82;21134;-77
2022/12/02 10:56:49;;;;;;;39.38;17.67;;;;;;;-0.64;100.00;98748.59;1690963;82;21090;-77
2022/12/02 10:59:15;;;;;;;51.02;20.85;;;;;;;-0.67;100.00;98745.81;1684675;83;20963;-77
2022/12/02 11:01:43;;;;;;;34.98;16.57;;;;;;;-0.58;100.00;98745.17;1700561;82;20951;-77
2022/12/02 11:04:13;;;;;;;36.55;18.80;;;;;;;-0.63;100.00;98746.24;1689952;83;21466;-80
2022/12/02 11:06:39;;;;;;;46.18;22.55;;;;;;;-0.72;100.00;98748.72;1698615;82;21770;-80
2022/12/02 11:09:05;;;;;;;40.45;18.57;;;;;;;-0.63;100.00;98741.74;1708954;82;20901;-80
2022/12/02 11:11:35;;;;;;;45.08;20.77;;;;;;;-0.65;100.00;98746.95;1702136;82;21542;-79
2022/12/02 11:14:03;;;;;;;41.45;17.92;;;;;;;-0.68;100.00;98743.34;1717052;82;21096;-80
2022/12/02 11:16:38;;;;;;;45.20;20.47;;;;;;;-0.68;100.00;98742.84;1704219;82;21064;-80
2022/12/02 11:19:35;;;;;;;39.58;20.05;;;;;;;-0.64;100.00;98737.95;1700868;82;21702;-77